createdAt,value
2023-04-06T00:03:07.541Z,6.59
2023-04-06T00:08:09.313Z,6.54
2023-04-06T00:13:10.985Z,6.55
2023-04-06T00:18:12.831Z,6.52
2023-04-06T00:23:14.400Z,6.46
2023-04-06T00:28:15.916Z,6.39
2023-04-06T00:33:17.326Z,6.51
2023-04-06T00:38:19.019Z,6.48
2023-04-06T00:43:20.664Z,6.36
2023-04-06T00:48:22.115Z,6.24
2023-04-06T00:53:23.465Z,6.21
2023-04-06T00:58:25.685Z,6.09
2023-04-06T01:03:27.078Z,6.01
2023-04-06T01:08:28.613Z,5.98
2023-04-06T01:13:30.417Z,5.96
2023-04-06T01:18:31.813Z,5.91
2023-04-06T01:23:33.224Z,5.89
2023-04-06T01:28:34.609Z,5.78
2023-04-06T01:33:36.714Z,5.75
2023-04-06T01:38:38.173Z,5.64
2023-04-06T01:43:39.598Z,5.60
2023-04-06T01:48:41.082Z,5.52
2023-04-06T01:53:42.532Z,5.46
2023-04-06T01:58:43.984Z,5.52
2023-04-06T02:03:45.515Z,5.42
2023-04-06T02:08:46.972Z,5.35
2023-04-06T02:13:48.466Z,5.35
2023-04-06T02:18:52.347Z,5.30
2023-04-06T02:23:53.859Z,5.25
2023-04-06T02:28:55.205Z,5.34
2023-04-06T02:33:56.580Z,5.13
2023-04-06T02:38:58.017Z,5.14
2023-04-06T02:43:59.432Z,5.04
2023-04-06T02:49:01.555Z,5.06
2023-04-06T02:54:03.054Z,5.03
2023-04-06T02:59:04.596Z,4.98
2023-04-06T03:04:05.950Z,4.93
2023-04-06T03:09:08.028Z,4.85
2023-04-06T03:14:09.640Z,4.86
2023-04-06T03:19:11.345Z,4.76
2023-04-06T03:24:14.652Z,4.69
2023-04-06T03:29:16.233Z,4.73
2023-04-06T03:34:21.244Z,4.72
2023-04-06T03:39:22.618Z,4.68
2023-04-06T03:44:24.116Z,4.51
2023-04-06T03:49:25.544Z,4.55
2023-04-06T03:54:26.989Z,4.55
2023-04-06T03:59:28.955Z,4.49
2023-04-06T04:04:30.602Z,4.43
2023-04-06T04:09:32.018Z,4.37
2023-04-06T04:14:33.480Z,4.35
2023-04-06T04:19:34.883Z,4.39
2023-04-06T04:24:36.291Z,4.30
2023-04-06T04:29:37.705Z,4.28
2023-04-06T04:34:41.260Z,4.28
2023-04-06T04:39:42.731Z,4.25
2023-04-06T04:44:44.205Z,4.22
2023-04-06T04:49:45.642Z,4.23
2023-04-06T04:54:48.002Z,4.22
2023-04-06T04:59:51.187Z,4.20
2023-04-06T05:04:52.672Z,4.14
2023-04-06T05:09:54.079Z,4.13
2023-04-06T05:14:55.682Z,4.17
2023-04-06T05:19:57.145Z,4.17
2023-04-06T05:24:58.766Z,4.21
2023-04-06T05:30:00.535Z,4.23
2023-04-06T05:35:03.130Z,4.17
2023-04-06T05:40:05.163Z,4.22
2023-04-06T05:45:07.633Z,4.08
2023-04-06T05:50:09.243Z,3.99
2023-04-06T05:55:11.561Z,4.13
2023-04-06T06:00:13.709Z,4.31
2023-04-06T06:05:15.456Z,4.33
2023-04-06T06:10:17.106Z,4.39
2023-04-06T06:15:18.495Z,4.44
2023-04-06T06:20:19.906Z,4.58
2023-04-06T06:25:22.388Z,4.75
2023-04-06T06:30:24.164Z,4.95
2023-04-06T06:35:26.048Z,5.06
2023-04-06T06:40:28.042Z,5.24
2023-04-06T06:45:30.672Z,5.42
2023-04-06T06:50:32.223Z,5.63
2023-04-06T06:55:33.831Z,5.74
2023-04-06T07:00:35.550Z,5.96
2023-04-06T07:05:38.074Z,6.13
2023-04-06T07:10:40.893Z,6.29
2023-04-06T07:15:42.826Z,6.40
2023-04-06T07:20:44.427Z,6.66
2023-04-06T07:25:46.564Z,6.84
2023-04-06T07:30:48.325Z,7.00
2023-04-06T07:35:49.827Z,7.20
2023-04-06T07:40:51.322Z,7.42
2023-04-06T07:45:52.845Z,7.49
2023-04-06T07:51:02.273Z,7.64
2023-04-06T07:56:06.374Z,7.78
2023-04-06T08:01:07.768Z,7.93
2023-04-06T08:06:09.174Z,8.04
2023-04-06T08:11:10.750Z,8.28
2023-04-06T08:16:12.162Z,8.55
2023-04-06T08:21:13.709Z,8.54
2023-04-06T08:26:15.144Z,8.71
2023-04-06T08:31:16.835Z,8.91
2023-04-06T08:36:21.237Z,9.11
2023-04-06T08:41:22.633Z,9.36
2023-04-06T08:46:30.539Z,9.66
2023-04-06T08:51:32.032Z,9.70
2023-04-06T08:56:34.753Z,10.06
2023-04-06T09:01:42.283Z,10.29
2023-04-06T09:06:44.168Z,10.46
2023-04-06T09:11:50.081Z,10.78
2023-04-06T09:16:51.432Z,11.28
2023-04-06T09:22:03.622Z,11.67
2023-04-06T09:27:05.088Z,12.15
2023-04-06T09:32:07.994Z,12.29
2023-04-06T09:37:20.168Z,12.89
2023-04-06T09:42:26.534Z,13.21
2023-04-06T09:47:29.730Z,13.22
2023-04-06T09:52:39.316Z,13.42
2023-04-06T09:57:51.469Z,13.61
2023-04-06T10:03:14.076Z,13.94
2023-04-06T10:08:17.130Z,14.47
2023-04-06T10:13:20.331Z,15.05
2023-04-06T10:18:22.305Z,16.24
2023-04-06T10:23:38.776Z,19.23
2023-04-06T10:28:42.712Z,20.42
2023-04-06T10:34:01.374Z,20.68
2023-04-06T10:39:05.583Z,19.37
2023-04-06T10:44:07.476Z,19.15
2023-04-06T10:49:15.870Z,20.59
2023-04-06T10:54:17.868Z,25.04
2023-04-06T10:59:21.789Z,26.79
2023-04-06T11:04:24.491Z,26.67
2023-04-06T11:09:27.041Z,27.64
2023-04-06T11:14:28.490Z,26.57
2023-04-06T11:19:30.791Z,27.72
2023-04-06T11:24:32.212Z,29.12
2023-04-06T11:29:36.484Z,30.92
2023-04-06T11:34:40.437Z,31.19
2023-04-06T11:39:50.289Z,31.12
2023-04-06T11:44:54.777Z,27.17
2023-04-06T11:49:56.714Z,26.43
2023-04-06T11:55:10.887Z,25.81
2023-04-06T12:00:13.385Z,25.12
2023-04-06T12:05:15.581Z,23.84
2023-04-06T12:10:17.018Z,23.20
2023-04-06T12:15:18.479Z,21.59
2023-04-06T12:20:26.382Z,21.56
2023-04-06T12:25:28.889Z,20.46
2023-04-06T12:30:31.296Z,21.32
2023-04-06T12:35:36.269Z,23.35
2023-04-06T12:40:39.410Z,22.50
2023-04-06T12:45:41.626Z,22.13
2023-04-06T12:50:43.036Z,22.30
2023-04-06T12:55:44.429Z,22.65
2023-04-06T13:00:46.541Z,21.22
2023-04-06T13:05:48.743Z,20.26
2023-04-06T13:10:51.840Z,20.12
2023-04-06T13:15:54.620Z,20.05
2023-04-06T13:20:57.127Z,19.72
2023-04-06T13:26:06.618Z,19.25
2023-04-06T13:31:08.102Z,18.80
2023-04-06T13:36:09.662Z,18.75
2023-04-06T13:41:11.739Z,18.72
2023-04-06T13:46:13.310Z,18.45
2023-04-06T13:51:16.473Z,18.52
2023-04-06T13:56:17.810Z,18.65
2023-04-06T14:01:19.225Z,18.72
2023-04-06T14:06:30.467Z,18.36
2023-04-06T14:11:33.435Z,17.87
2023-04-06T14:16:34.787Z,17.97
2023-04-06T14:21:36.511Z,17.42
2023-04-06T14:26:38.355Z,17.44
2023-04-06T14:31:39.755Z,17.07
2023-04-06T14:36:41.259Z,16.83
2023-04-06T14:41:42.766Z,16.55
2023-04-06T14:46:44.485Z,16.48
2023-04-06T14:51:45.970Z,16.49
2023-04-06T14:56:47.462Z,16.32
2023-04-06T15:01:48.905Z,16.21
2023-04-06T15:06:50.435Z,15.91
2023-04-06T15:11:51.854Z,15.85
2023-04-06T15:16:53.260Z,15.76
2023-04-06T15:21:54.639Z,15.60
2023-04-06T15:26:56.851Z,15.36
2023-04-06T15:31:58.315Z,15.23
2023-04-06T15:37:02.680Z,15.18
2023-04-06T15:42:04.605Z,15.23
2023-04-06T15:47:06.258Z,15.16
2023-04-06T15:52:07.656Z,14.97
2023-04-06T15:57:09.139Z,14.85
2023-04-06T16:02:10.877Z,14.79
2023-04-06T16:07:12.227Z,14.82
2023-04-06T16:12:13.675Z,14.65
2023-04-06T16:17:15.772Z,14.62
2023-04-06T16:22:17.335Z,14.55
2023-04-06T16:27:18.693Z,13.98
2023-04-06T16:32:20.196Z,14.03
2023-04-06T16:37:21.561Z,13.95
2023-04-06T16:42:23.321Z,13.84
2023-04-06T16:47:24.838Z,13.75
2023-04-06T16:52:26.497Z,13.68
2023-04-06T16:57:29.695Z,13.67
2023-04-06T17:02:32.395Z,13.59
2023-04-06T17:07:35.526Z,13.62
2023-04-06T17:12:36.861Z,13.59
2023-04-06T17:17:39.032Z,13.53
2023-04-06T17:22:40.675Z,13.41
2023-04-06T17:27:43.005Z,13.43
2023-04-06T17:32:45.239Z,13.38
2023-04-06T17:37:47.937Z,13.18
2023-04-06T17:42:49.321Z,12.98
2023-04-06T17:47:51.555Z,12.97
2023-04-06T17:52:53.154Z,12.95
2023-04-06T17:57:54.577Z,12.93
2023-04-06T18:02:57.745Z,12.77
2023-04-06T18:07:59.224Z,12.70
2023-04-06T18:13:01.426Z,12.65
2023-04-06T18:18:02.937Z,12.61
2023-04-06T18:23:04.327Z,12.44
2023-04-06T18:28:06.908Z,12.46
2023-04-06T18:33:08.362Z,12.47
2023-04-06T18:38:09.812Z,12.46
2023-04-06T18:43:11.413Z,12.22
2023-04-06T18:48:13.628Z,12.17
2023-04-06T18:53:15.005Z,12.19
2023-04-06T18:58:16.385Z,11.99
2023-04-06T19:03:19.773Z,11.77
2023-04-06T19:08:22.884Z,11.71
2023-04-06T19:13:25.605Z,11.65
2023-04-06T19:18:27.431Z,11.66
2023-04-06T19:23:28.750Z,11.64
2023-04-06T19:28:30.347Z,11.57
2023-04-06T19:33:31.712Z,11.49
2023-04-06T19:38:34.039Z,11.59
2023-04-06T19:43:35.516Z,11.54
2023-04-06T19:48:36.960Z,11.43
2023-04-06T19:53:38.370Z,11.39
2023-04-06T19:58:40.282Z,11.24
2023-04-06T20:03:41.950Z,11.10
2023-04-06T20:08:44.448Z,11.05
2023-04-06T20:13:46.948Z,11.06
2023-04-06T20:18:48.260Z,11.00
2023-04-06T20:23:49.659Z,10.90
2023-04-06T20:28:51.337Z,10.76
2023-04-06T20:33:52.707Z,10.77
2023-04-06T20:38:54.823Z,10.65
2023-04-06T20:43:56.271Z,10.49
2023-04-06T20:48:57.725Z,10.50
2023-04-06T20:54:00.960Z,10.40
2023-04-06T20:59:04.749Z,10.39
2023-04-06T21:04:06.397Z,10.33
2023-04-06T21:09:07.736Z,10.29
2023-04-06T21:14:09.373Z,10.22
2023-04-06T21:19:10.958Z,10.16
2023-04-06T21:24:12.258Z,10.18
2023-04-06T21:29:13.659Z,10.11
2023-04-06T21:34:15.359Z,9.96
2023-04-06T21:39:16.861Z,9.89
2023-04-06T21:44:18.592Z,9.83
2023-04-06T21:49:20.135Z,9.87
2023-04-06T21:54:21.670Z,9.69
2023-04-06T21:59:23.365Z,9.68
2023-04-06T22:04:25.421Z,9.63
2023-04-06T22:09:27.204Z,9.70
2023-04-06T22:14:28.765Z,9.70
2023-04-06T22:19:32.974Z,9.70
2023-04-06T22:24:34.320Z,9.70
2023-04-06T22:29:35.718Z,9.66
2023-04-06T22:34:37.085Z,9.61
2023-04-06T22:39:39.139Z,9.49
2023-04-06T22:44:40.574Z,9.60
2023-04-06T22:49:41.921Z,9.61
2023-04-06T22:54:43.270Z,9.51
2023-04-06T22:59:44.839Z,9.50
2023-04-06T23:04:46.424Z,9.50
2023-04-06T23:09:47.812Z,9.50
2023-04-06T23:14:49.588Z,9.47
2023-04-06T23:19:51.399Z,9.44
2023-04-06T23:24:52.756Z,9.45
2023-04-06T23:29:54.303Z,9.49
2023-04-06T23:34:55.648Z,9.51
2023-04-06T23:39:57.583Z,9.52
2023-04-06T23:44:59.376Z,9.53
2023-04-06T23:50:00.773Z,9.47
2023-04-06T23:55:02.150Z,9.46
